sensor_id;sensor_type;location;lat;lon;timestamp;temperature;humidity
20045;DHT22;10183;47.808;9.476;2022-11-11T00:00:37;2.90;99.90
20045;DHT22;10183;47.808;9.476;2022-11-11T00:03:04;2.80;99.90
20045;DHT22;10183;47.808;9.476;2022-11-11T00:05:32;2.80;99.90
20045;DHT22;10183;47.808;9.476;2022-11-11T00:07:59;2.80;99.90
20045;DHT22;10183;47.808;9.476;2022-11-11T00:10:26;2.80;99.90
20045;DHT22;10183;47.808;9.476;2022-11-11T00:12:52;2.70;99.90
20045;DHT22;10183;47.808;9.476;2022-11-11T00:15:18;2.70;99.90
20045;DHT22;10183;47.808;9.476;2022-11-11T00:17:44;2.60;99.90
20045;DHT22;10183;47.808;9.476;2022-11-11T00:20:29;2.60;99.90
20045;DHT22;10183;47.808;9.476;2022-11-11T00:23:20;2.60;99.90
20045;DHT22;10183;47.808;9.476;2022-11-11T00:26:06;2.50;99.90
20045;DHT22;10183;47.808;9.476;2022-11-11T00:28:32;2.40;99.90
20045;DHT22;10183;47.808;9.476;2022-11-11T00:31:07;2.40;99.90
20045;DHT22;10183;47.808;9.476;2022-11-11T00:33:34;2.40;99.90
20045;DHT22;10183;47.808;9.476;2022-11-11T00:36:00;2.40;99.90
20045;DHT22;10183;47.808;9.476;2022-11-11T00:38:26;2.40;99.90
20045;DHT22;10183;47.808;9.476;2022-11-11T00:41:19;2.30;99.90
20045;DHT22;10183;47.808;9.476;2022-11-11T00:43:46;2.30;99.90
20045;DHT22;10183;47.808;9.476;2022-11-11T00:46:13;2.30;99.90
20045;DHT22;10183;47.808;9.476;2022-11-11T00:48:58;2.30;99.90
20045;DHT22;10183;47.808;9.476;2022-11-11T00:51:44;2.30;99.90
20045;DHT22;10183;47.808;9.476;2022-11-11T00:54:11;2.30;99.90
20045;DHT22;10183;47.808;9.476;2022-11-11T00:56:37;2.30;99.90
20045;DHT22;10183;47.808;9.476;2022-11-11T00:59:05;2.30;99.90
20045;DHT22;10183;47.808;9.476;2022-11-11T01:01:32;2.30;99.90
20045;DHT22;10183;47.808;9.476;2022-11-11T01:03:59;2.30;99.90
20045;DHT22;10183;47.808;9.476;2022-11-11T01:06:25;2.30;99.90
20045;DHT22;10183;47.808;9.476;2022-11-11T01:08:52;2.30;99.90
20045;DHT22;10183;47.808;9.476;2022-11-11T01:11:20;2.30;99.90
20045;DHT22;10183;47.808;9.476;2022-11-11T01:13:46;2.30;99.90
20045;DHT22;10183;47.808;9.476;2022-11-11T01:16:15;2.20;99.90
20045;DHT22;10183;47.808;9.476;2022-11-11T01:18:41;2.20;99.90
20045;DHT22;10183;47.808;9.476;2022-11-11T01:21:12;2.20;99.90
20045;DHT22;10183;47.808;9.476;2022-11-11T01:23:40;2.20;99.90
20045;DHT22;10183;47.808;9.476;2022-11-11T01:26:10;2.30;99.90
20045;DHT22;10183;47.808;9.476;2022-11-11T01:28:38;2.30;99.90
20045;DHT22;10183;47.808;9.476;2022-11-11T01:31:07;2.30;99.90
20045;DHT22;10183;47.808;9.476;2022-11-11T01:33:33;2.30;99.90
20045;DHT22;10183;47.808;9.476;2022-11-11T01:36:08;2.50;99.90
20045;DHT22;10183;47.808;9.476;2022-11-11T01:38:35;2.70;99.90
20045;DHT22;10183;47.808;9.476;2022-11-11T01:41:02;2.80;99.90
20045;DHT22;10183;47.808;9.476;2022-11-11T01:43:52;2.90;99.90
20045;DHT22;10183;47.808;9.476;2022-11-11T01:46:34;2.60;99.90
20045;DHT22;10183;47.808;9.476;2022-11-11T01:52:03;2.30;99.90
20045;DHT22;10183;47.808;9.476;2022-11-11T01:54:32;2.40;99.90
20045;DHT22;10183;47.808;9.476;2022-11-11T01:57:16;2.30;99.90
20045;DHT22;10183;47.808;9.476;2022-11-11T01:59:48;2.20;99.90
20045;DHT22;10183;47.808;9.476;2022-11-11T02:02:23;2.20;99.90
20045;DHT22;10183;47.808;9.476;2022-11-11T02:04:51;2.20;99.90
20045;DHT22;10183;47.808;9.476;2022-11-11T02:07:36;2.10;99.90
20045;DHT22;10183;47.808;9.476;2022-11-11T02:10:06;2.10;99.90
20045;DHT22;10183;47.808;9.476;2022-11-11T02:12:33;2.10;99.90
20045;DHT22;10183;47.808;9.476;2022-11-11T02:15:18;2.10;99.90
20045;DHT22;10183;47.808;9.476;2022-11-11T02:17:46;2.20;99.90
20045;DHT22;10183;47.808;9.476;2022-11-11T02:20:25;2.30;99.90
20045;DHT22;10183;47.808;9.476;2022-11-11T02:25:26;2.30;99.90
20045;DHT22;10183;47.808;9.476;2022-11-11T02:27:57;2.30;99.90
20045;DHT22;10183;47.808;9.476;2022-11-11T02:30:24;2.30;99.90
20045;DHT22;10183;47.808;9.476;2022-11-11T02:32:52;2.30;99.90
20045;DHT22;10183;47.808;9.476;2022-11-11T02:35:28;2.30;99.90
20045;DHT22;10183;47.808;9.476;2022-11-11T02:37:55;2.20;99.90
20045;DHT22;10183;47.808;9.476;2022-11-11T02:43:03;2.20;99.90
20045;DHT22;10183;47.808;9.476;2022-11-11T02:45:30;2.10;99.90
20045;DHT22;10183;47.808;9.476;2022-11-11T02:47:56;2.10;99.90
20045;DHT22;10183;47.808;9.476;2022-11-11T02:50:22;2.10;99.90
20045;DHT22;10183;47.808;9.476;2022-11-11T02:52:49;2.10;99.90
20045;DHT22;10183;47.808;9.476;2022-11-11T02:55:15;2.00;99.90
20045;DHT22;10183;47.808;9.476;2022-11-11T02:57:41;2.00;99.90
20045;DHT22;10183;47.808;9.476;2022-11-11T03:00:07;2.00;99.90
20045;DHT22;10183;47.808;9.476;2022-11-11T03:02:34;2.00;99.90
20045;DHT22;10183;47.808;9.476;2022-11-11T03:05:00;1.90;99.90
20045;DHT22;10183;47.808;9.476;2022-11-11T03:07:26;1.90;99.90
20045;DHT22;10183;47.808;9.476;2022-11-11T03:09:52;1.90;99.90
20045;DHT22;10183;47.808;9.476;2022-11-11T03:12:19;1.90;99.90
20045;DHT22;10183;47.808;9.476;2022-11-11T03:14:45;1.80;99.90
20045;DHT22;10183;47.808;9.476;2022-11-11T03:17:11;1.80;99.90
20045;DHT22;10183;47.808;9.476;2022-11-11T03:19:56;1.80;99.90
20045;DHT22;10183;47.808;9.476;2022-11-11T03:22:42;1.80;99.90
20045;DHT22;10183;47.808;9.476;2022-11-11T03:25:08;1.70;99.90
20045;DHT22;10183;47.808;9.476;2022-11-11T03:27:53;1.70;99.90
20045;DHT22;10183;47.808;9.476;2022-11-11T03:30:19;1.70;99.90
20045;DHT22;10183;47.808;9.476;2022-11-11T03:32:46;1.70;99.90
20045;DHT22;10183;47.808;9.476;2022-11-11T03:35:12;1.70;99.90
20045;DHT22;10183;47.808;9.476;2022-11-11T03:37:38;1.80;99.90
20045;DHT22;10183;47.808;9.476;2022-11-11T03:40:23;1.80;99.90
20045;DHT22;10183;47.808;9.476;2022-11-11T03:42:49;1.90;99.90
20045;DHT22;10183;47.808;9.476;2022-11-11T03:45:15;1.90;99.90
20045;DHT22;10183;47.808;9.476;2022-11-11T03:47:41;1.90;99.90
20045;DHT22;10183;47.808;9.476;2022-11-11T03:50:07;1.90;99.90
20045;DHT22;10183;47.808;9.476;2022-11-11T03:52:34;1.90;99.90
20045;DHT22;10183;47.808;9.476;2022-11-11T03:55:00;1.90;99.90
20045;DHT22;10183;47.808;9.476;2022-11-11T03:57:40;1.90;99.90
20045;DHT22;10183;47.808;9.476;2022-11-11T04:00:08;1.90;99.90
20045;DHT22;10183;47.808;9.476;2022-11-11T04:02:34;2.10;99.90
20045;DHT22;10183;47.808;9.476;2022-11-11T04:05:19;2.20;99.90
20045;DHT22;10183;47.808;9.476;2022-11-11T04:08:04;2.20;99.90
20045;DHT22;10183;47.808;9.476;2022-11-11T04:10:49;2.20;99.90
20045;DHT22;10183;47.808;9.476;2022-11-11T04:13:15;1.90;99.90
20045;DHT22;10183;47.808;9.476;2022-11-11T04:16:00;1.70;99.90
20045;DHT22;10183;47.808;9.476;2022-11-11T04:18:36;1.70;99.90
20045;DHT22;10183;47.808;9.476;2022-11-11T04:21:23;1.60;99.90
20045;DHT22;10183;47.808;9.476;2022-11-11T04:26:58;1.50;99.90
20045;DHT22;10183;47.808;9.476;2022-11-11T04:29:25;1.50;99.90
20045;DHT22;10183;47.808;9.476;2022-11-11T04:32:06;1.50;99.90
20045;DHT22;10183;47.808;9.476;2022-11-11T04:37:22;1.70;99.90
20045;DHT22;10183;47.808;9.476;2022-11-11T04:39:50;1.90;99.90
20045;DHT22;10183;47.808;9.476;2022-11-11T04:42:35;1.90;99.90
20045;DHT22;10183;47.808;9.476;2022-11-11T04:45:02;1.90;99.90
20045;DHT22;10183;47.808;9.476;2022-11-11T04:50:25;1.80;99.90
20045;DHT22;10183;47.808;9.476;2022-11-11T04:52:53;1.90;99.90
20045;DHT22;10183;47.808;9.476;2022-11-11T04:55:19;1.90;99.90
20045;DHT22;10183;47.808;9.476;2022-11-11T04:58:04;1.80;99.90
20045;DHT22;10183;47.808;9.476;2022-11-11T05:00:30;2.00;99.90
20045;DHT22;10183;47.808;9.476;2022-11-11T05:02:56;2.20;99.90
20045;DHT22;10183;47.808;9.476;2022-11-11T05:05:48;2.30;99.90
20045;DHT22;10183;47.808;9.476;2022-11-11T05:08:38;2.60;99.90
20045;DHT22;10183;47.808;9.476;2022-11-11T05:11:26;2.80;99.90
20045;DHT22;10183;47.808;9.476;2022-11-11T05:13:54;3.60;99.90
20045;DHT22;10183;47.808;9.476;2022-11-11T05:16:48;4.20;99.90
20045;DHT22;10183;47.808;9.476;2022-11-11T05:19:33;4.50;99.90
20045;DHT22;10183;47.808;9.476;2022-11-11T05:22:28;4.60;99.90
20045;DHT22;10183;47.808;9.476;2022-11-11T05:24:57;4.80;99.90
20045;DHT22;10183;47.808;9.476;2022-11-11T05:27:42;4.80;99.90
20045;DHT22;10183;47.808;9.476;2022-11-11T05:30:10;4.90;99.90
20045;DHT22;10183;47.808;9.476;2022-11-11T05:32:37;5.00;99.90
20045;DHT22;10183;47.808;9.476;2022-11-11T05:35:05;5.00;99.90
20045;DHT22;10183;47.808;9.476;2022-11-11T05:37:31;5.20;99.90
20045;DHT22;10183;47.808;9.476;2022-11-11T05:39:57;5.20;99.90
20045;DHT22;10183;47.808;9.476;2022-11-11T05:42:24;5.20;99.90
20045;DHT22;10183;47.808;9.476;2022-11-11T05:44:50;5.20;99.90
20045;DHT22;10183;47.808;9.476;2022-11-11T05:47:16;5.30;99.90
20045;DHT22;10183;47.808;9.476;2022-11-11T05:49:42;5.30;99.90
20045;DHT22;10183;47.808;9.476;2022-11-11T05:52:10;5.40;99.90
20045;DHT22;10183;47.808;9.476;2022-11-11T05:54:37;5.00;99.90
20045;DHT22;10183;47.808;9.476;2022-11-11T05:57:03;4.60;99.90
20045;DHT22;10183;47.808;9.476;2022-11-11T05:59:30;4.20;99.90
20045;DHT22;10183;47.808;9.476;2022-11-11T06:01:56;3.80;99.90
20045;DHT22;10183;47.808;9.476;2022-11-11T06:04:22;3.40;99.90
20045;DHT22;10183;47.808;9.476;2022-11-11T06:06:49;3.20;99.90
20045;DHT22;10183;47.808;9.476;2022-11-11T06:09:15;3.00;99.90
20045;DHT22;10183;47.808;9.476;2022-11-11T06:11:41;2.80;99.90
20045;DHT22;10183;47.808;9.476;2022-11-11T06:14:07;2.60;99.90
20045;DHT22;10183;47.808;9.476;2022-11-11T06:16:33;2.60;99.90
20045;DHT22;10183;47.808;9.476;2022-11-11T06:18:59;2.30;99.90
20045;DHT22;10183;47.808;9.476;2022-11-11T06:21:26;2.30;99.90
20045;DHT22;10183;47.808;9.476;2022-11-11T06:23:52;2.30;99.90
20045;DHT22;10183;47.808;9.476;2022-11-11T06:26:18;2.20;99.90
20045;DHT22;10183;47.808;9.476;2022-11-11T06:28:52;2.20;99.90
20045;DHT22;10183;47.808;9.476;2022-11-11T06:31:24;2.10;99.90
20045;DHT22;10183;47.808;9.476;2022-11-11T06:33:50;2.20;99.90
20045;DHT22;10183;47.808;9.476;2022-11-11T06:36:19;2.30;99.90
20045;DHT22;10183;47.808;9.476;2022-11-11T06:38:46;2.40;99.90
20045;DHT22;10183;47.808;9.476;2022-11-11T06:41:13;2.60;99.90
20045;DHT22;10183;47.808;9.476;2022-11-11T06:43:40;2.80;99.90
20045;DHT22;10183;47.808;9.476;2022-11-11T06:46:06;2.90;99.90
20045;DHT22;10183;47.808;9.476;2022-11-11T06:48:32;3.00;99.90
20045;DHT22;10183;47.808;9.476;2022-11-11T06:51:04;3.10;99.90
20045;DHT22;10183;47.808;9.476;2022-11-11T06:53:31;2.90;99.90
20045;DHT22;10183;47.808;9.476;2022-11-11T06:55:57;2.60;99.90
20045;DHT22;10183;47.808;9.476;2022-11-11T06:58:24;2.70;99.90
20045;DHT22;10183;47.808;9.476;2022-11-11T07:00:50;2.80;99.90
20045;DHT22;10183;47.808;9.476;2022-11-11T07:03:19;2.90;99.90
20045;DHT22;10183;47.808;9.476;2022-11-11T07:05:45;3.00;99.90
20045;DHT22;10183;47.808;9.476;2022-11-11T07:08:14;2.90;99.90
20045;DHT22;10183;47.808;9.476;2022-11-11T07:10:46;2.90;99.90
20045;DHT22;10183;47.808;9.476;2022-11-11T07:13:13;3.00;99.90
20045;DHT22;10183;47.808;9.476;2022-11-11T07:15:43;3.10;99.90
20045;DHT22;10183;47.808;9.476;2022-11-11T07:18:10;3.10;99.90
20045;DHT22;10183;47.808;9.476;2022-11-11T07:20:37;3.30;99.90
20045;DHT22;10183;47.808;9.476;2022-11-11T07:23:04;3.40;99.90
20045;DHT22;10183;47.808;9.476;2022-11-11T07:25:30;3.50;99.90
20045;DHT22;10183;47.808;9.476;2022-11-11T07:27:57;3.40;99.90
20045;DHT22;10183;47.808;9.476;2022-11-11T07:30:23;3.50;99.90
20045;DHT22;10183;47.808;9.476;2022-11-11T07:32:51;3.60;99.90
20045;DHT22;10183;47.808;9.476;2022-11-11T07:35:18;3.80;99.90
20045;DHT22;10183;47.808;9.476;2022-11-11T07:37:44;3.90;99.90
20045;DHT22;10183;47.808;9.476;2022-11-11T07:40:13;4.10;99.90
20045;DHT22;10183;47.808;9.476;2022-11-11T07:42:40;4.20;99.90
20045;DHT22;10183;47.808;9.476;2022-11-11T07:45:07;4.20;99.90
20045;DHT22;10183;47.808;9.476;2022-11-11T07:47:34;4.40;99.90
20045;DHT22;10183;47.808;9.476;2022-11-11T07:50:02;4.60;99.90
20045;DHT22;10183;47.808;9.476;2022-11-11T07:52:28;4.70;99.90
20045;DHT22;10183;47.808;9.476;2022-11-11T07:54:55;5.10;99.90
20045;DHT22;10183;47.808;9.476;2022-11-11T07:57:21;5.20;99.90
20045;DHT22;10183;47.808;9.476;2022-11-11T07:59:48;5.40;99.90
20045;DHT22;10183;47.808;9.476;2022-11-11T08:02:14;5.60;99.90
20045;DHT22;10183;47.808;9.476;2022-11-11T08:04:40;5.70;99.90
20045;DHT22;10183;47.808;9.476;2022-11-11T08:07:07;5.80;99.90
20045;DHT22;10183;47.808;9.476;2022-11-11T08:09:33;5.80;99.90
20045;DHT22;10183;47.808;9.476;2022-11-11T08:11:59;5.90;99.90
20045;DHT22;10183;47.808;9.476;2022-11-11T08:14:44;6.00;99.90
20045;DHT22;10183;47.808;9.476;2022-11-11T08:17:10;6.10;99.90
20045;DHT22;10183;47.808;9.476;2022-11-11T08:19:36;6.10;99.90
20045;DHT22;10183;47.808;9.476;2022-11-11T08:22:03;6.20;99.90
20045;DHT22;10183;47.808;9.476;2022-11-11T08:24:29;6.30;99.90
20045;DHT22;10183;47.808;9.476;2022-11-11T08:26:56;6.30;99.90
20045;DHT22;10183;47.808;9.476;2022-11-11T08:29:22;6.30;99.90
20045;DHT22;10183;47.808;9.476;2022-11-11T08:31:50;6.40;99.90
20045;DHT22;10183;47.808;9.476;2022-11-11T08:34:16;6.40;99.90
20045;DHT22;10183;47.808;9.476;2022-11-11T08:36:42;6.40;99.90
20045;DHT22;10183;47.808;9.476;2022-11-11T08:39:08;6.40;99.90
20045;DHT22;10183;47.808;9.476;2022-11-11T08:41:34;6.40;99.90
20045;DHT22;10183;47.808;9.476;2022-11-11T08:44:01;6.40;99.90
20045;DHT22;10183;47.808;9.476;2022-11-11T08:46:27;6.50;99.90
20045;DHT22;10183;47.808;9.476;2022-11-11T08:48:53;6.50;99.90
20045;DHT22;10183;47.808;9.476;2022-11-11T08:51:19;6.60;99.90
20045;DHT22;10183;47.808;9.476;2022-11-11T08:53:45;6.60;99.90
20045;DHT22;10183;47.808;9.476;2022-11-11T08:56:12;6.50;99.90
20045;DHT22;10183;47.808;9.476;2022-11-11T08:58:38;6.50;99.90
20045;DHT22;10183;47.808;9.476;2022-11-11T09:01:09;6.60;99.90
20045;DHT22;10183;47.808;9.476;2022-11-11T09:03:35;6.60;99.90
20045;DHT22;10183;47.808;9.476;2022-11-11T09:06:01;6.70;99.90
20045;DHT22;10183;47.808;9.476;2022-11-11T09:08:27;6.70;99.90
20045;DHT22;10183;47.808;9.476;2022-11-11T09:10:53;6.80;99.90
20045;DHT22;10183;47.808;9.476;2022-11-11T09:13:22;6.70;99.90
20045;DHT22;10183;47.808;9.476;2022-11-11T09:15:48;6.70;99.90
20045;DHT22;10183;47.808;9.476;2022-11-11T09:18:14;6.80;99.90
20045;DHT22;10183;47.808;9.476;2022-11-11T09:20:41;6.80;99.90
20045;DHT22;10183;47.808;9.476;2022-11-11T09:23:07;6.70;99.90
20045;DHT22;10183;47.808;9.476;2022-11-11T09:25:33;6.70;99.90
20045;DHT22;10183;47.808;9.476;2022-11-11T09:28:00;6.80;99.90
20045;DHT22;10183;47.808;9.476;2022-11-11T09:30:28;6.70;99.90
20045;DHT22;10183;47.808;9.476;2022-11-11T09:32:59;6.70;99.90
20045;DHT22;10183;47.808;9.476;2022-11-11T09:35:25;6.70;99.90
20045;DHT22;10183;47.808;9.476;2022-11-11T09:37:55;6.70;99.90
20045;DHT22;10183;47.808;9.476;2022-11-11T09:40:24;6.90;99.90
20045;DHT22;10183;47.808;9.476;2022-11-11T09:43:11;6.90;99.90
20045;DHT22;10183;47.808;9.476;2022-11-11T09:45:55;6.90;99.90
20045;DHT22;10183;47.808;9.476;2022-11-11T09:51:17;6.90;99.90
20045;DHT22;10183;47.808;9.476;2022-11-11T09:54:03;6.90;99.90
20045;DHT22;10183;47.808;9.476;2022-11-11T09:56:32;6.80;99.90
20045;DHT22;10183;47.808;9.476;2022-11-11T09:59:23;6.90;99.90
20045;DHT22;10183;47.808;9.476;2022-11-11T10:01:54;7.00;99.90
20045;DHT22;10183;47.808;9.476;2022-11-11T10:04:32;7.00;99.90
20045;DHT22;10183;47.808;9.476;2022-11-11T10:07:27;7.00;99.90
20045;DHT22;10183;47.808;9.476;2022-11-11T10:10:07;7.00;99.90
20045;DHT22;10183;47.808;9.476;2022-11-11T10:12:44;7.00;99.90
20045;DHT22;10183;47.808;9.476;2022-11-11T10:15:12;7.10;99.90
20045;DHT22;10183;47.808;9.476;2022-11-11T10:17:42;7.10;99.90
20045;DHT22;10183;47.808;9.476;2022-11-11T10:20:25;7.20;99.90
20045;DHT22;10183;47.808;9.476;2022-11-11T10:23:15;7.20;99.90
20045;DHT22;10183;47.808;9.476;2022-11-11T10:25:52;7.30;99.90
20045;DHT22;10183;47.808;9.476;2022-11-11T10:28:21;7.20;99.90
20045;DHT22;10183;47.808;9.476;2022-11-11T10:30:50;7.30;99.90
20045;DHT22;10183;47.808;9.476;2022-11-11T10:33:28;7.20;99.90
20045;DHT22;10183;47.808;9.476;2022-11-11T10:35:59;7.00;99.90
20045;DHT22;10183;47.808;9.476;2022-11-11T10:41:02;7.10;99.90
20045;DHT22;10183;47.808;9.476;2022-11-11T10:43:30;7.10;99.90
20045;DHT22;10183;47.808;9.476;2022-11-11T10:51:04;7.10;99.90
20045;DHT22;10183;47.808;9.476;2022-11-11T10:53:56;6.90;99.90
20045;DHT22;10183;47.808;9.476;2022-11-11T10:56:50;7.00;99.90
20045;DHT22;10183;47.808;9.476;2022-11-11T10:59:46;7.00;99.90
20045;DHT22;10183;47.808;9.476;2022-11-11T11:02:23;7.00;99.90
20045;DHT22;10183;47.808;9.476;2022-11-11T11:07:28;7.10;99.90
20045;DHT22;10183;47.808;9.476;2022-11-11T11:09:59;7.20;99.90
20045;DHT22;10183;47.808;9.476;2022-11-11T11:15:05;7.20;99.90
20045;DHT22;10183;47.808;9.476;2022-11-11T11:17:50;7.10;99.90
20045;DHT22;10183;47.808;9.476;2022-11-11T11:20:19;7.10;99.90
20045;DHT22;10183;47.808;9.476;2022-11-11T11:22:54;7.10;99.90
20045;DHT22;10183;47.808;9.476;2022-11-11T11:25:25;7.00;99.90
20045;DHT22;10183;47.808;9.476;2022-11-11T11:28:11;7.10;99.90
20045;DHT22;10183;47.808;9.476;2022-11-11T11:30:38;7.30;99.90
20045;DHT22;10183;47.808;9.476;2022-11-11T11:33:07;7.30;99.90
20045;DHT22;10183;47.808;9.476;2022-11-11T11:35:37;7.30;99.90
20045;DHT22;10183;47.808;9.476;2022-11-11T11:38:05;7.40;99.90
20045;DHT22;10183;47.808;9.476;2022-11-11T11:40:54;7.40;99.90
20045;DHT22;10183;47.808;9.476;2022-11-11T11:43:34;7.30;99.90
20045;DHT22;10183;47.808;9.476;2022-11-11T11:46:03;7.30;99.90
20045;DHT22;10183;47.808;9.476;2022-11-11T11:51:16;7.50;99.90
20045;DHT22;10183;47.808;9.476;2022-11-11T11:54:16;7.50;99.90
20045;DHT22;10183;47.808;9.476;2022-11-11T11:56:55;7.40;99.90
20045;DHT22;10183;47.808;9.476;2022-11-11T12:00:19;7.40;99.90
20045;DHT22;10183;47.808;9.476;2022-11-11T12:05:46;7.40;99.90
20045;DHT22;10183;47.808;9.476;2022-11-11T12:08:41;7.40;99.90
20045;DHT22;10183;47.808;9.476;2022-11-11T12:21:28;7.90;99.90
20045;DHT22;10183;47.808;9.476;2022-11-11T12:24:30;8.10;99.90
20045;DHT22;10183;47.808;9.476;2022-11-11T12:27:26;8.10;99.90
20045;DHT22;10183;47.808;9.476;2022-11-11T12:32:57;8.30;99.90
20045;DHT22;10183;47.808;9.476;2022-11-11T12:38:29;8.40;99.90
20045;DHT22;10183;47.808;9.476;2022-11-11T13:10:44;9.30;99.90
20045;DHT22;10183;47.808;9.476;2022-11-11T13:16:02;9.50;99.90
20045;DHT22;10183;47.808;9.476;2022-11-11T13:21:17;8.80;99.90
20045;DHT22;10183;47.808;9.476;2022-11-11T13:23:44;8.80;99.90
20045;DHT22;10183;47.808;9.476;2022-11-11T13:26:24;8.40;99.90
20045;DHT22;10183;47.808;9.476;2022-11-11T13:31:41;8.40;99.90
20045;DHT22;10183;47.808;9.476;2022-11-11T13:34:11;8.00;99.90
20045;DHT22;10183;47.808;9.476;2022-11-11T13:36:48;8.00;99.90
20045;DHT22;10183;47.808;9.476;2022-11-11T13:39:37;8.10;99.90
20045;DHT22;10183;47.808;9.476;2022-11-11T13:42:04;8.40;99.90
20045;DHT22;10183;47.808;9.476;2022-11-11T13:47:07;8.30;99.90
20045;DHT22;10183;47.808;9.476;2022-11-11T13:49:44;8.10;99.90
20045;DHT22;10183;47.808;9.476;2022-11-11T13:55:02;8.10;99.90
20045;DHT22;10183;47.808;9.476;2022-11-11T13:57:31;8.30;99.90
20045;DHT22;10183;47.808;9.476;2022-11-11T14:00:04;8.20;99.90
20045;DHT22;10183;47.808;9.476;2022-11-11T14:02:33;8.30;99.90
20045;DHT22;10183;47.808;9.476;2022-11-11T14:12:54;8.80;99.90
20045;DHT22;10183;47.808;9.476;2022-11-11T14:20:59;8.90;99.90
20045;DHT22;10183;47.808;9.476;2022-11-11T14:23:32;8.80;99.90
20045;DHT22;10183;47.808;9.476;2022-11-11T14:28:33;8.40;99.90
20045;DHT22;10183;47.808;9.476;2022-11-11T14:33:55;7.90;99.90
20045;DHT22;10183;47.808;9.476;2022-11-11T14:36:40;8.00;99.90
20045;DHT22;10183;47.808;9.476;2022-11-11T14:45:04;8.00;99.90
20045;DHT22;10183;47.808;9.476;2022-11-11T14:47:36;7.90;99.90
20045;DHT22;10183;47.808;9.476;2022-11-11T14:53:00;7.70;99.90
20045;DHT22;10183;47.808;9.476;2022-11-11T14:55:32;7.60;99.90
20045;DHT22;10183;47.808;9.476;2022-11-11T14:58:15;7.60;99.90
20045;DHT22;10183;47.808;9.476;2022-11-11T15:03:45;7.60;99.90
20045;DHT22;10183;47.808;9.476;2022-11-11T15:06:27;7.60;99.90
20045;DHT22;10183;47.808;9.476;2022-11-11T15:13:03;7.70;99.90
20045;DHT22;10183;47.808;9.476;2022-11-11T15:21:21;7.30;99.90
20045;DHT22;10183;47.808;9.476;2022-11-11T15:26:27;7.20;99.90
20045;DHT22;10183;47.808;9.476;2022-11-11T15:32:11;7.30;99.90
20045;DHT22;10183;47.808;9.476;2022-11-11T15:37:17;7.50;99.90
20045;DHT22;10183;47.808;9.476;2022-11-11T15:39:50;7.50;99.90
20045;DHT22;10183;47.808;9.476;2022-11-11T15:42:37;7.60;99.90
20045;DHT22;10183;47.808;9.476;2022-11-11T15:47:38;7.60;99.90
20045;DHT22;10183;47.808;9.476;2022-11-11T15:52:42;7.20;99.90
20045;DHT22;10183;47.808;9.476;2022-11-11T15:55:22;7.20;99.90
20045;DHT22;10183;47.808;9.476;2022-11-11T15:57:48;7.20;99.90
20045;DHT22;10183;47.808;9.476;2022-11-11T16:00:25;7.30;99.90
20045;DHT22;10183;47.808;9.476;2022-11-11T16:02:54;7.30;99.90
20045;DHT22;10183;47.808;9.476;2022-11-11T16:05:25;7.30;99.90
20045;DHT22;10183;47.808;9.476;2022-11-11T16:08:00;7.30;99.90
20045;DHT22;10183;47.808;9.476;2022-11-11T16:13:24;7.30;99.90
20045;DHT22;10183;47.808;9.476;2022-11-11T16:18:31;7.20;99.90
20045;DHT22;10183;47.808;9.476;2022-11-11T16:21:18;7.20;99.90
20045;DHT22;10183;47.808;9.476;2022-11-11T16:23:45;7.20;99.90
20045;DHT22;10183;47.808;9.476;2022-11-11T16:26:12;7.20;99.90
20045;DHT22;10183;47.808;9.476;2022-11-11T16:28:51;7.30;99.90
20045;DHT22;10183;47.808;9.476;2022-11-11T16:37:09;7.30;99.90
20045;DHT22;10183;47.808;9.476;2022-11-11T16:39:36;7.30;99.90
20045;DHT22;10183;47.808;9.476;2022-11-11T16:42:17;7.30;99.90
20045;DHT22;10183;47.808;9.476;2022-11-11T16:45:18;7.30;99.90
20045;DHT22;10183;47.808;9.476;2022-11-11T16:47:46;7.30;99.90
20045;DHT22;10183;47.808;9.476;2022-11-11T16:50:27;7.30;99.90
20045;DHT22;10183;47.808;9.476;2022-11-11T16:53:01;7.30;99.90
20045;DHT22;10183;47.808;9.476;2022-11-11T16:55:38;7.20;99.90
20045;DHT22;10183;47.808;9.476;2022-11-11T16:58:18;7.20;99.90
20045;DHT22;10183;47.808;9.476;2022-11-11T17:00:45;7.20;99.90
20045;DHT22;10183;47.808;9.476;2022-11-11T17:03:19;7.10;99.90
20045;DHT22;10183;47.808;9.476;2022-11-11T17:10:53;7.00;99.90
20045;DHT22;10183;47.808;9.476;2022-11-11T17:13:19;7.00;99.90
20045;DHT22;10183;47.808;9.476;2022-11-11T17:15:46;7.00;99.90
20045;DHT22;10183;47.808;9.476;2022-11-11T17:18:12;7.00;99.90
20045;DHT22;10183;47.808;9.476;2022-11-11T17:20:39;7.00;99.90
20045;DHT22;10183;47.808;9.476;2022-11-11T17:23:05;7.00;99.90
20045;DHT22;10183;47.808;9.476;2022-11-11T17:25:32;7.00;99.90
20045;DHT22;10183;47.808;9.476;2022-11-11T17:27:58;7.00;99.90
20045;DHT22;10183;47.808;9.476;2022-11-11T17:30:24;7.10;99.90
20045;DHT22;10183;47.808;9.476;2022-11-11T17:32:50;7.10;99.90
20045;DHT22;10183;47.808;9.476;2022-11-11T17:35:17;7.10;99.90
20045;DHT22;10183;47.808;9.476;2022-11-11T17:37:43;7.10;99.90
20045;DHT22;10183;47.808;9.476;2022-11-11T17:40:10;7.10;99.90
20045;DHT22;10183;47.808;9.476;2022-11-11T17:42:36;7.10;99.90
20045;DHT22;10183;47.808;9.476;2022-11-11T17:45:03;7.00;99.90
20045;DHT22;10183;47.808;9.476;2022-11-11T17:47:30;7.10;99.90
20045;DHT22;10183;47.808;9.476;2022-11-11T17:49:57;7.10;99.90
20045;DHT22;10183;47.808;9.476;2022-11-11T17:52:23;7.00;99.90
20045;DHT22;10183;47.808;9.476;2022-11-11T17:54:49;7.00;99.90
20045;DHT22;10183;47.808;9.476;2022-11-11T17:57:16;7.10;99.90
20045;DHT22;10183;47.808;9.476;2022-11-11T17:59:42;7.10;99.90
20045;DHT22;10183;47.808;9.476;2022-11-11T18:02:12;7.00;99.90
20045;DHT22;10183;47.808;9.476;2022-11-11T18:04:39;7.00;99.90
20045;DHT22;10183;47.808;9.476;2022-11-11T18:07:06;7.00;99.90
20045;DHT22;10183;47.808;9.476;2022-11-11T18:09:32;7.00;99.90
20045;DHT22;10183;47.808;9.476;2022-11-11T18:11:58;6.90;99.90
20045;DHT22;10183;47.808;9.476;2022-11-11T18:14:25;6.90;99.90
20045;DHT22;10183;47.808;9.476;2022-11-11T18:16:51;7.00;99.90
20045;DHT22;10183;47.808;9.476;2022-11-11T18:19:17;7.00;99.90
20045;DHT22;10183;47.808;9.476;2022-11-11T18:21:43;6.90;99.90
20045;DHT22;10183;47.808;9.476;2022-11-11T18:24:10;6.90;99.90
20045;DHT22;10183;47.808;9.476;2022-11-11T18:26:37;6.90;99.90
20045;DHT22;10183;47.808;9.476;2022-11-11T18:29:07;6.90;99.90
20045;DHT22;10183;47.808;9.476;2022-11-11T18:31:34;6.90;99.90
20045;DHT22;10183;47.808;9.476;2022-11-11T18:34:00;6.90;99.90
20045;DHT22;10183;47.808;9.476;2022-11-11T18:36:27;7.00;99.90
20045;DHT22;10183;47.808;9.476;2022-11-11T18:38:54;6.90;99.90
20045;DHT22;10183;47.808;9.476;2022-11-11T18:41:22;7.00;99.90
20045;DHT22;10183;47.808;9.476;2022-11-11T18:43:50;7.00;99.90
20045;DHT22;10183;47.808;9.476;2022-11-11T18:46:19;7.00;99.90
20045;DHT22;10183;47.808;9.476;2022-11-11T18:48:46;7.00;99.90
20045;DHT22;10183;47.808;9.476;2022-11-11T18:51:15;7.00;99.90
20045;DHT22;10183;47.808;9.476;2022-11-11T18:53:43;7.00;99.90
20045;DHT22;10183;47.808;9.476;2022-11-11T18:56:11;6.90;99.90
20045;DHT22;10183;47.808;9.476;2022-11-11T18:58:38;6.90;99.90